Terminal Aerodrome Forecast
Issued by NWS

Home | Current Version | Previous Version | Text Only | Print | Product List | Glossary On
Versions: 1 2 3 4 5 6 7 8 9 10 11 12 13 14 15 16 17 18 19 20 21 22 23 24 25 26 27 28 29
000
FTUS46 KOTX 112335
TAFMWH
TAF
KMWH 112335Z 1200/1224 34008KT P6SM VCSH OVC060
     FM120200 35007KT P6SM -RA SCT015 OVC035
     FM120600 01005KT P6SM BKN035 OVC050
     FM121400 03003KT P6SM OVC100
     FM121900 16005KT P6SM SCT250=

USA.gov is the U.S. government's official web portal to all federal, state and local government web resources and services.